sensor_id;sensor_type;location;lat;lon;timestamp;temperature;humidity
2995;DHT22;35277;49.890;8.222;2023-08-08T00:01:45;25.10;68.60
2995;DHT22;35277;49.890;8.222;2023-08-08T00:04:15;25.10;68.70
2995;DHT22;35277;49.890;8.222;2023-08-08T00:06:42;25.10;68.70
2995;DHT22;35277;49.890;8.222;2023-08-08T00:09:10;25.10;68.70
2995;DHT22;35277;49.890;8.222;2023-08-08T00:11:38;25.10;68.70
2995;DHT22;35277;49.890;8.222;2023-08-08T00:14:06;25.10;68.80
2995;DHT22;35277;49.890;8.222;2023-08-08T00:16:34;25.10;68.80
2995;DHT22;35277;49.890;8.222;2023-08-08T00:19:02;25.10;68.80
2995;DHT22;35277;49.890;8.222;2023-08-08T00:21:31;25.10;68.80
2995;DHT22;35277;49.890;8.222;2023-08-08T00:23:59;25.10;68.80
2995;DHT22;35277;49.890;8.222;2023-08-08T00:26:27;25.10;68.80
2995;DHT22;35277;49.890;8.222;2023-08-08T00:28:55;25.10;68.80
2995;DHT22;35277;49.890;8.222;2023-08-08T00:31:22;25.10;69.60
2995;DHT22;35277;49.890;8.222;2023-08-08T00:33:51;25.10;68.80
2995;DHT22;35277;49.890;8.222;2023-08-08T00:36:19;25.10;68.80
2995;DHT22;35277;49.890;8.222;2023-08-08T00:38:48;25.10;68.90
2995;DHT22;35277;49.890;8.222;2023-08-08T00:41:16;25.10;68.90
2995;DHT22;35277;49.890;8.222;2023-08-08T00:43:44;25.10;68.90
2995;DHT22;35277;49.890;8.222;2023-08-08T00:46:11;25.10;68.90
2995;DHT22;35277;49.890;8.222;2023-08-08T00:48:39;25.10;68.90
2995;DHT22;35277;49.890;8.222;2023-08-08T00:51:07;25.10;68.90
2995;DHT22;35277;49.890;8.222;2023-08-08T00:53:35;25.10;68.90
2995;DHT22;35277;49.890;8.222;2023-08-08T00:56:05;25.10;68.90
2995;DHT22;35277;49.890;8.222;2023-08-08T00:58:33;25.10;68.90
2995;DHT22;35277;49.890;8.222;2023-08-08T01:01:01;25.10;68.90
2995;DHT22;35277;49.890;8.222;2023-08-08T01:03:29;25.10;68.90
2995;DHT22;35277;49.890;8.222;2023-08-08T01:06:03;25.10;68.90
2995;DHT22;35277;49.890;8.222;2023-08-08T01:08:37;25.10;69.00
2995;DHT22;35277;49.890;8.222;2023-08-08T01:11:08;25.10;69.00
2995;DHT22;35277;49.890;8.222;2023-08-08T01:13:37;25.10;69.00
2995;DHT22;35277;49.890;8.222;2023-08-08T01:16:06;25.10;69.00
2995;DHT22;35277;49.890;8.222;2023-08-08T01:18:35;25.10;69.00
2995;DHT22;35277;49.890;8.222;2023-08-08T01:21:05;25.10;69.00
2995;DHT22;35277;49.890;8.222;2023-08-08T01:23:41;25.10;69.10
2995;DHT22;35277;49.890;8.222;2023-08-08T01:26:12;25.10;69.10
2995;DHT22;35277;49.890;8.222;2023-08-08T01:28:42;25.10;69.10
2995;DHT22;35277;49.890;8.222;2023-08-08T01:31:10;25.10;69.10
2995;DHT22;35277;49.890;8.222;2023-08-08T01:33:39;25.10;69.10
2995;DHT22;35277;49.890;8.222;2023-08-08T01:36:11;25.10;69.20
2995;DHT22;35277;49.890;8.222;2023-08-08T01:38:43;25.10;69.20
2995;DHT22;35277;49.890;8.222;2023-08-08T01:41:13;25.10;69.20
2995;DHT22;35277;49.890;8.222;2023-08-08T01:43:41;25.10;69.20
2995;DHT22;35277;49.890;8.222;2023-08-08T01:46:10;25.10;69.20
2995;DHT22;35277;49.890;8.222;2023-08-08T01:48:38;25.10;69.20
2995;DHT22;35277;49.890;8.222;2023-08-08T01:51:06;25.10;69.20
2995;DHT22;35277;49.890;8.222;2023-08-08T01:53:34;25.10;69.20
2995;DHT22;35277;49.890;8.222;2023-08-08T01:56:02;25.10;69.30
2995;DHT22;35277;49.890;8.222;2023-08-08T01:58:31;25.10;69.20
2995;DHT22;35277;49.890;8.222;2023-08-08T02:00:59;25.10;69.30
2995;DHT22;35277;49.890;8.222;2023-08-08T02:03:27;25.10;69.30
2995;DHT22;35277;49.890;8.222;2023-08-08T02:05:55;25.10;69.30
2995;DHT22;35277;49.890;8.222;2023-08-08T02:08:23;25.10;69.30
2995;DHT22;35277;49.890;8.222;2023-08-08T02:10:50;25.10;69.30
2995;DHT22;35277;49.890;8.222;2023-08-08T02:13:18;25.10;69.30
2995;DHT22;35277;49.890;8.222;2023-08-08T02:15:48;25.10;69.40
2995;DHT22;35277;49.890;8.222;2023-08-08T02:18:16;25.10;69.40
2995;DHT22;35277;49.890;8.222;2023-08-08T02:20:44;25.10;69.40
2995;DHT22;35277;49.890;8.222;2023-08-08T02:23:12;25.10;69.40
2995;DHT22;35277;49.890;8.222;2023-08-08T02:25:40;25.10;69.40
2995;DHT22;35277;49.890;8.222;2023-08-08T02:28:08;25.10;69.40
2995;DHT22;35277;49.890;8.222;2023-08-08T02:30:36;25.10;69.40
2995;DHT22;35277;49.890;8.222;2023-08-08T02:33:05;25.10;69.40
2995;DHT22;35277;49.890;8.222;2023-08-08T02:35:33;25.10;69.40
2995;DHT22;35277;49.890;8.222;2023-08-08T02:38:01;25.10;69.40
2995;DHT22;35277;49.890;8.222;2023-08-08T02:40:29;25.10;69.40
2995;DHT22;35277;49.890;8.222;2023-08-08T02:42:57;25.10;69.40
2995;DHT22;35277;49.890;8.222;2023-08-08T02:45:25;25.00;69.30
2995;DHT22;35277;49.890;8.222;2023-08-08T02:47:53;25.00;69.30
2995;DHT22;35277;49.890;8.222;2023-08-08T02:50:22;25.00;69.30
2995;DHT22;35277;49.890;8.222;2023-08-08T02:52:51;25.00;69.40
2995;DHT22;35277;49.890;8.222;2023-08-08T02:55:22;25.00;69.30
2995;DHT22;35277;49.890;8.222;2023-08-08T02:57:51;25.00;69.40
2995;DHT22;35277;49.890;8.222;2023-08-08T03:00:19;25.00;69.40
2995;DHT22;35277;49.890;8.222;2023-08-08T03:02:50;25.00;69.40
2995;DHT22;35277;49.890;8.222;2023-08-08T03:05:19;25.00;69.50
2995;DHT22;35277;49.890;8.222;2023-08-08T03:07:49;25.00;69.40
2995;DHT22;35277;49.890;8.222;2023-08-08T03:10:18;25.00;69.50
2995;DHT22;35277;49.890;8.222;2023-08-08T03:12:46;25.00;69.40
2995;DHT22;35277;49.890;8.222;2023-08-08T03:15:14;25.00;69.40
2995;DHT22;35277;49.890;8.222;2023-08-08T03:17:42;25.00;69.40
2995;DHT22;35277;49.890;8.222;2023-08-08T03:20:11;25.00;69.40
2995;DHT22;35277;49.890;8.222;2023-08-08T03:22:39;25.00;69.50
2995;DHT22;35277;49.890;8.222;2023-08-08T03:25:09;25.00;69.50
2995;DHT22;35277;49.890;8.222;2023-08-08T03:27:37;25.00;69.50
2995;DHT22;35277;49.890;8.222;2023-08-08T03:30:06;25.00;69.50
2995;DHT22;35277;49.890;8.222;2023-08-08T03:32:40;25.00;69.40
2995;DHT22;35277;49.890;8.222;2023-08-08T03:35:08;25.00;69.50
2995;DHT22;35277;49.890;8.222;2023-08-08T03:37:39;25.00;69.50
2995;DHT22;35277;49.890;8.222;2023-08-08T03:40:09;25.00;69.50
2995;DHT22;35277;49.890;8.222;2023-08-08T03:42:37;25.00;69.60
2995;DHT22;35277;49.890;8.222;2023-08-08T03:45:05;25.00;69.70
2995;DHT22;35277;49.890;8.222;2023-08-08T03:47:33;25.00;69.70
2995;DHT22;35277;49.890;8.222;2023-08-08T03:50:01;25.00;69.80
2995;DHT22;35277;49.890;8.222;2023-08-08T03:52:31;25.00;69.90
2995;DHT22;35277;49.890;8.222;2023-08-08T03:55:01;25.00;70.00
2995;DHT22;35277;49.890;8.222;2023-08-08T03:57:31;25.00;70.00
2995;DHT22;35277;49.890;8.222;2023-08-08T03:59:59;25.00;70.00
2995;DHT22;35277;49.890;8.222;2023-08-08T04:02:27;25.00;70.10
2995;DHT22;35277;49.890;8.222;2023-08-08T04:04:55;25.00;70.10
2995;DHT22;35277;49.890;8.222;2023-08-08T04:07:23;25.00;70.10
2995;DHT22;35277;49.890;8.222;2023-08-08T04:09:51;25.00;70.20
2995;DHT22;35277;49.890;8.222;2023-08-08T04:12:19;25.00;70.20
2995;DHT22;35277;49.890;8.222;2023-08-08T04:14:48;25.00;70.20
2995;DHT22;35277;49.890;8.222;2023-08-08T04:17:16;25.00;70.20
2995;DHT22;35277;49.890;8.222;2023-08-08T04:19:44;25.00;70.20
2995;DHT22;35277;49.890;8.222;2023-08-08T04:22:11;25.00;70.20
2995;DHT22;35277;49.890;8.222;2023-08-08T04:24:39;25.00;70.20
2995;DHT22;35277;49.890;8.222;2023-08-08T04:27:07;25.00;70.20
2995;DHT22;35277;49.890;8.222;2023-08-08T04:29:35;25.00;70.20
2995;DHT22;35277;49.890;8.222;2023-08-08T04:32:05;25.00;70.20
2995;DHT22;35277;49.890;8.222;2023-08-08T04:34:33;25.00;70.20
2995;DHT22;35277;49.890;8.222;2023-08-08T04:37:01;25.00;70.20
2995;DHT22;35277;49.890;8.222;2023-08-08T04:39:29;25.00;70.10
2995;DHT22;35277;49.890;8.222;2023-08-08T04:41:57;25.00;70.20
2995;DHT22;35277;49.890;8.222;2023-08-08T04:44:25;25.00;70.10
2995;DHT22;35277;49.890;8.222;2023-08-08T04:46:53;25.00;70.10
2995;DHT22;35277;49.890;8.222;2023-08-08T04:49:22;25.00;70.10
2995;DHT22;35277;49.890;8.222;2023-08-08T04:51:50;25.00;70.10
2995;DHT22;35277;49.890;8.222;2023-08-08T04:54:17;25.00;70.10
2995;DHT22;35277;49.890;8.222;2023-08-08T04:56:45;25.00;70.10
2995;DHT22;35277;49.890;8.222;2023-08-08T04:59:13;25.00;70.10
2995;DHT22;35277;49.890;8.222;2023-08-08T05:01:41;25.00;70.10
2995;DHT22;35277;49.890;8.222;2023-08-08T05:04:09;25.00;70.10
2995;DHT22;35277;49.890;8.222;2023-08-08T05:06:38;25.00;70.10
2995;DHT22;35277;49.890;8.222;2023-08-08T05:09:06;25.00;70.50
2995;DHT22;35277;49.890;8.222;2023-08-08T05:11:36;25.00;70.50
2995;DHT22;35277;49.890;8.222;2023-08-08T05:14:03;25.00;70.70
2995;DHT22;35277;49.890;8.222;2023-08-08T05:16:31;25.00;70.80
2995;DHT22;35277;49.890;8.222;2023-08-08T05:18:59;25.00;70.80
2995;DHT22;35277;49.890;8.222;2023-08-08T05:21:27;25.00;70.80
2995;DHT22;35277;49.890;8.222;2023-08-08T05:23:56;25.10;71.00
2995;DHT22;35277;49.890;8.222;2023-08-08T05:26:24;25.00;70.90
2995;DHT22;35277;49.890;8.222;2023-08-08T05:28:52;25.00;70.90
2995;DHT22;35277;49.890;8.222;2023-08-08T05:31:20;25.10;71.30
2995;DHT22;35277;49.890;8.222;2023-08-08T05:33:48;25.10;71.00
2995;DHT22;35277;49.890;8.222;2023-08-08T05:36:16;25.10;71.10
2995;DHT22;35277;49.890;8.222;2023-08-08T05:38:44;25.10;71.20
2995;DHT22;35277;49.890;8.222;2023-08-08T05:41:13;25.10;71.20
2995;DHT22;35277;49.890;8.222;2023-08-08T05:43:41;25.10;71.30
2995;DHT22;35277;49.890;8.222;2023-08-08T05:46:09;25.10;71.30
2995;DHT22;35277;49.890;8.222;2023-08-08T05:48:37;25.10;71.30
2995;DHT22;35277;49.890;8.222;2023-08-08T05:51:05;25.10;71.30
2995;DHT22;35277;49.890;8.222;2023-08-08T05:53:33;25.10;71.30
2995;DHT22;35277;49.890;8.222;2023-08-08T05:56:00;25.10;71.30
2995;DHT22;35277;49.890;8.222;2023-08-08T05:58:30;25.10;71.30
2995;DHT22;35277;49.890;8.222;2023-08-08T06:00:57;25.10;71.30
2995;DHT22;35277;49.890;8.222;2023-08-08T06:03:25;25.10;71.30
2995;DHT22;35277;49.890;8.222;2023-08-08T06:05:54;25.10;71.30
2995;DHT22;35277;49.890;8.222;2023-08-08T06:08:22;25.10;72.10
2995;DHT22;35277;49.890;8.222;2023-08-08T06:10:50;25.10;71.30
2995;DHT22;35277;49.890;8.222;2023-08-08T06:13:18;25.10;71.30
2995;DHT22;35277;49.890;8.222;2023-08-08T06:15:47;25.10;71.20
2995;DHT22;35277;49.890;8.222;2023-08-08T06:18:16;25.10;71.20
2995;DHT22;35277;49.890;8.222;2023-08-08T06:20:44;25.10;71.90
2995;DHT22;35277;49.890;8.222;2023-08-08T06:23:12;25.10;71.10
2995;DHT22;35277;49.890;8.222;2023-08-08T06:25:41;25.10;71.00
2995;DHT22;35277;49.890;8.222;2023-08-08T06:28:09;25.10;71.00
2995;DHT22;35277;49.890;8.222;2023-08-08T06:30:38;25.10;71.00
2995;DHT22;35277;49.890;8.222;2023-08-08T06:33:07;25.10;71.00
2995;DHT22;35277;49.890;8.222;2023-08-08T06:35:35;25.10;71.00
2995;DHT22;35277;49.890;8.222;2023-08-08T06:38:03;25.10;70.90
2995;DHT22;35277;49.890;8.222;2023-08-08T06:40:31;25.10;70.90
2995;DHT22;35277;49.890;8.222;2023-08-08T06:42:59;25.10;70.90
2995;DHT22;35277;49.890;8.222;2023-08-08T06:45:27;25.10;70.90
2995;DHT22;35277;49.890;8.222;2023-08-08T06:47:55;25.10;70.90
2995;DHT22;35277;49.890;8.222;2023-08-08T06:50:25;25.10;70.90
2995;DHT22;35277;49.890;8.222;2023-08-08T06:52:53;25.10;70.80
2995;DHT22;35277;49.890;8.222;2023-08-08T06:55:20;25.10;70.90
2995;DHT22;35277;49.890;8.222;2023-08-08T06:57:48;25.10;70.80
2995;DHT22;35277;49.890;8.222;2023-08-08T07:00:16;25.10;70.80
2995;DHT22;35277;49.890;8.222;2023-08-08T07:02:44;25.10;70.80
2995;DHT22;35277;49.890;8.222;2023-08-08T07:05:12;25.10;70.80
2995;DHT22;35277;49.890;8.222;2023-08-08T07:07:41;25.10;70.80
2995;DHT22;35277;49.890;8.222;2023-08-08T07:10:09;25.10;70.50
2995;DHT22;35277;49.890;8.222;2023-08-08T07:12:38;25.10;70.10
2995;DHT22;35277;49.890;8.222;2023-08-08T07:15:07;25.00;69.60
2995;DHT22;35277;49.890;8.222;2023-08-08T07:17:36;25.00;69.30
2995;DHT22;35277;49.890;8.222;2023-08-08T07:20:05;24.90;68.80
2995;DHT22;35277;49.890;8.222;2023-08-08T07:22:33;24.90;68.60
2995;DHT22;35277;49.890;8.222;2023-08-08T07:25:03;24.80;68.10
2995;DHT22;35277;49.890;8.222;2023-08-08T07:27:31;24.70;67.70
2995;DHT22;35277;49.890;8.222;2023-08-08T07:29:59;24.70;67.50
2995;DHT22;35277;49.890;8.222;2023-08-08T07:32:27;24.70;67.20
2995;DHT22;35277;49.890;8.222;2023-08-08T07:34:57;24.60;66.90
2995;DHT22;35277;49.890;8.222;2023-08-08T07:37:28;24.60;66.70
2995;DHT22;35277;49.890;8.222;2023-08-08T07:39:55;24.50;66.40
2995;DHT22;35277;49.890;8.222;2023-08-08T07:42:25;24.50;66.20
2995;DHT22;35277;49.890;8.222;2023-08-08T07:44:53;24.50;66.00
2995;DHT22;35277;49.890;8.222;2023-08-08T07:47:20;24.40;65.80
2995;DHT22;35277;49.890;8.222;2023-08-08T07:49:48;24.40;65.60
2995;DHT22;35277;49.890;8.222;2023-08-08T07:52:16;24.40;65.40
2995;DHT22;35277;49.890;8.222;2023-08-08T07:54:44;24.40;65.10
2995;DHT22;35277;49.890;8.222;2023-08-08T07:57:12;24.30;64.80
2995;DHT22;35277;49.890;8.222;2023-08-08T07:59:41;24.30;64.80
2995;DHT22;35277;49.890;8.222;2023-08-08T08:02:09;24.30;64.80
2995;DHT22;35277;49.890;8.222;2023-08-08T08:04:37;24.40;64.90
2995;DHT22;35277;49.890;8.222;2023-08-08T08:07:05;24.40;64.90
2995;DHT22;35277;49.890;8.222;2023-08-08T08:09:32;24.40;64.80
2995;DHT22;35277;49.890;8.222;2023-08-08T08:12:00;24.40;64.70
2995;DHT22;35277;49.890;8.222;2023-08-08T08:14:28;24.40;64.40
2995;DHT22;35277;49.890;8.222;2023-08-08T08:16:57;24.40;64.20
2995;DHT22;35277;49.890;8.222;2023-08-08T08:19:25;24.40;64.10
2995;DHT22;35277;49.890;8.222;2023-08-08T08:21:53;24.40;64.10
2995;DHT22;35277;49.890;8.222;2023-08-08T08:24:21;24.40;64.00
2995;DHT22;35277;49.890;8.222;2023-08-08T08:26:49;24.40;64.00
2995;DHT22;35277;49.890;8.222;2023-08-08T08:29:17;24.40;64.10
2995;DHT22;35277;49.890;8.222;2023-08-08T08:31:45;24.40;64.10
2995;DHT22;35277;49.890;8.222;2023-08-08T08:34:14;24.40;64.10
2995;DHT22;35277;49.890;8.222;2023-08-08T08:36:42;24.40;64.00
2995;DHT22;35277;49.890;8.222;2023-08-08T08:39:10;24.40;64.00
2995;DHT22;35277;49.890;8.222;2023-08-08T08:41:38;24.40;63.60
2995;DHT22;35277;49.890;8.222;2023-08-08T08:44:05;24.40;62.90
2995;DHT22;35277;49.890;8.222;2023-08-08T08:46:35;24.40;62.70
2995;DHT22;35277;49.890;8.222;2023-08-08T08:49:05;24.30;62.40
2995;DHT22;35277;49.890;8.222;2023-08-08T08:51:36;24.20;62.30
2995;DHT22;35277;49.890;8.222;2023-08-08T08:54:04;24.20;62.00
2995;DHT22;35277;49.890;8.222;2023-08-08T08:56:33;24.10;61.90
2995;DHT22;35277;49.890;8.222;2023-08-08T08:59:01;24.10;62.00
2995;DHT22;35277;49.890;8.222;2023-08-08T09:01:29;24.00;61.90
2995;DHT22;35277;49.890;8.222;2023-08-08T09:03:57;24.00;61.90
2995;DHT22;35277;49.890;8.222;2023-08-08T09:06:27;24.00;61.90
2995;DHT22;35277;49.890;8.222;2023-08-08T09:08:57;24.00;62.00
2995;DHT22;35277;49.890;8.222;2023-08-08T09:11:36;24.00;62.40
2995;DHT22;35277;49.890;8.222;2023-08-08T09:14:15;24.00;62.50
2995;DHT22;35277;49.890;8.222;2023-08-08T09:16:43;24.10;62.80
2995;DHT22;35277;49.890;8.222;2023-08-08T09:19:11;24.10;62.90
2995;DHT22;35277;49.890;8.222;2023-08-08T09:21:39;24.20;63.00
2995;DHT22;35277;49.890;8.222;2023-08-08T09:24:08;24.20;63.10
2995;DHT22;35277;49.890;8.222;2023-08-08T09:26:36;24.30;63.30
2995;DHT22;35277;49.890;8.222;2023-08-08T09:29:04;24.40;63.40
2995;DHT22;35277;49.890;8.222;2023-08-08T09:31:34;24.50;63.50
2995;DHT22;35277;49.890;8.222;2023-08-08T09:34:03;24.50;63.60
2995;DHT22;35277;49.890;8.222;2023-08-08T09:36:33;24.50;63.50
2995;DHT22;35277;49.890;8.222;2023-08-08T09:39:02;24.60;63.70
2995;DHT22;35277;49.890;8.222;2023-08-08T09:41:31;24.60;63.70
2995;DHT22;35277;49.890;8.222;2023-08-08T09:43:59;24.60;63.80
2995;DHT22;35277;49.890;8.222;2023-08-08T09:46:30;24.70;63.90
2995;DHT22;35277;49.890;8.222;2023-08-08T09:48:58;24.70;63.90
2995;DHT22;35277;49.890;8.222;2023-08-08T09:51:26;24.80;64.10
2995;DHT22;35277;49.890;8.222;2023-08-08T09:53:55;24.80;64.20
2995;DHT22;35277;49.890;8.222;2023-08-08T09:56:23;24.80;64.20
2995;DHT22;35277;49.890;8.222;2023-08-08T09:58:53;24.80;64.30
2995;DHT22;35277;49.890;8.222;2023-08-08T10:01:21;24.80;64.30
2995;DHT22;35277;49.890;8.222;2023-08-08T10:03:51;24.90;64.60
2995;DHT22;35277;49.890;8.222;2023-08-08T10:06:20;24.90;64.70
2995;DHT22;35277;49.890;8.222;2023-08-08T10:08:48;24.90;64.70
2995;DHT22;35277;49.890;8.222;2023-08-08T10:11:16;24.90;64.80
2995;DHT22;35277;49.890;8.222;2023-08-08T10:13:48;25.00;64.90
2995;DHT22;35277;49.890;8.222;2023-08-08T10:16:18;25.00;65.00
2995;DHT22;35277;49.890;8.222;2023-08-08T10:18:55;25.00;65.00
2995;DHT22;35277;49.890;8.222;2023-08-08T10:21:24;25.00;65.00
2995;DHT22;35277;49.890;8.222;2023-08-08T10:24:01;25.00;65.10
2995;DHT22;35277;49.890;8.222;2023-08-08T10:26:29;25.00;65.10
2995;DHT22;35277;49.890;8.222;2023-08-08T10:28:59;25.00;65.10
2995;DHT22;35277;49.890;8.222;2023-08-08T10:31:33;25.00;65.20
2995;DHT22;35277;49.890;8.222;2023-08-08T10:34:02;25.10;65.30
2995;DHT22;35277;49.890;8.222;2023-08-08T10:36:44;25.10;65.30
2995;DHT22;35277;49.890;8.222;2023-08-08T10:39:15;25.10;65.50
2995;DHT22;35277;49.890;8.222;2023-08-08T10:41:45;25.10;65.50
2995;DHT22;35277;49.890;8.222;2023-08-08T10:44:13;25.10;65.50
2995;DHT22;35277;49.890;8.222;2023-08-08T10:46:50;25.10;65.60
2995;DHT22;35277;49.890;8.222;2023-08-08T10:49:19;25.10;65.60
2995;DHT22;35277;49.890;8.222;2023-08-08T10:51:48;25.10;65.70
2995;DHT22;35277;49.890;8.222;2023-08-08T10:54:18;25.20;65.90
2995;DHT22;35277;49.890;8.222;2023-08-08T10:56:51;25.20;65.90
2995;DHT22;35277;49.890;8.222;2023-08-08T10:59:20;25.20;66.00
2995;DHT22;35277;49.890;8.222;2023-08-08T11:01:52;25.20;66.00
2995;DHT22;35277;49.890;8.222;2023-08-08T11:04:24;25.20;66.10
2995;DHT22;35277;49.890;8.222;2023-08-08T11:06:53;25.20;66.10
2995;DHT22;35277;49.890;8.222;2023-08-08T11:09:21;25.20;66.10
2995;DHT22;35277;49.890;8.222;2023-08-08T11:11:49;25.20;66.20
2995;DHT22;35277;49.890;8.222;2023-08-08T11:14:20;25.20;66.20
2995;DHT22;35277;49.890;8.222;2023-08-08T11:16:52;25.20;66.30
2995;DHT22;35277;49.890;8.222;2023-08-08T11:19:20;25.20;67.10
2995;DHT22;35277;49.890;8.222;2023-08-08T11:21:48;25.30;66.40
2995;DHT22;35277;49.890;8.222;2023-08-08T11:24:16;25.30;66.40
2995;DHT22;35277;49.890;8.222;2023-08-08T11:26:44;25.30;66.40
2995;DHT22;35277;49.890;8.222;2023-08-08T11:29:14;25.30;66.50
2995;DHT22;35277;49.890;8.222;2023-08-08T11:31:42;25.30;66.50
2995;DHT22;35277;49.890;8.222;2023-08-08T11:34:11;25.30;66.60
2995;DHT22;35277;49.890;8.222;2023-08-08T11:36:43;25.30;66.60
2995;DHT22;35277;49.890;8.222;2023-08-08T11:39:12;25.30;66.60
2995;DHT22;35277;49.890;8.222;2023-08-08T11:41:40;25.30;66.60
2995;DHT22;35277;49.890;8.222;2023-08-08T11:44:09;25.30;66.60
2995;DHT22;35277;49.890;8.222;2023-08-08T11:46:43;25.30;66.70
2995;DHT22;35277;49.890;8.222;2023-08-08T11:49:16;25.30;66.60
2995;DHT22;35277;49.890;8.222;2023-08-08T11:51:44;25.30;66.70
2995;DHT22;35277;49.890;8.222;2023-08-08T11:54:13;25.30;66.70
2995;DHT22;35277;49.890;8.222;2023-08-08T11:56:41;25.30;66.70
2995;DHT22;35277;49.890;8.222;2023-08-08T11:59:09;25.30;66.70
2995;DHT22;35277;49.890;8.222;2023-08-08T12:01:38;25.30;66.70
2995;DHT22;35277;49.890;8.222;2023-08-08T12:04:08;25.30;66.70
2995;DHT22;35277;49.890;8.222;2023-08-08T12:06:38;25.30;66.80
2995;DHT22;35277;49.890;8.222;2023-08-08T12:09:06;25.30;66.80
2995;DHT22;35277;49.890;8.222;2023-08-08T12:11:35;25.30;66.80
2995;DHT22;35277;49.890;8.222;2023-08-08T12:14:07;25.30;66.80
2995;DHT22;35277;49.890;8.222;2023-08-08T12:16:37;25.30;66.80
2995;DHT22;35277;49.890;8.222;2023-08-08T12:19:07;25.40;66.90
2995;DHT22;35277;49.890;8.222;2023-08-08T12:21:38;25.40;67.00
2995;DHT22;35277;49.890;8.222;2023-08-08T12:24:07;25.40;67.00
2995;DHT22;35277;49.890;8.222;2023-08-08T12:26:35;25.40;67.00
2995;DHT22;35277;49.890;8.222;2023-08-08T12:29:03;25.30;66.80
2995;DHT22;35277;49.890;8.222;2023-08-08T12:31:31;25.40;66.90
2995;DHT22;35277;49.890;8.222;2023-08-08T12:33:59;25.30;66.80
2995;DHT22;35277;49.890;8.222;2023-08-08T12:36:27;25.40;67.00
2995;DHT22;35277;49.890;8.222;2023-08-08T12:38:56;25.40;66.90
2995;DHT22;35277;49.890;8.222;2023-08-08T12:41:24;25.40;66.90
2995;DHT22;35277;49.890;8.222;2023-08-08T12:43:52;25.40;66.90
2995;DHT22;35277;49.890;8.222;2023-08-08T12:46:20;25.40;66.90
2995;DHT22;35277;49.890;8.222;2023-08-08T12:48:48;25.40;66.90
2995;DHT22;35277;49.890;8.222;2023-08-08T12:51:16;25.40;66.90
2995;DHT22;35277;49.890;8.222;2023-08-08T12:53:44;25.40;66.90
2995;DHT22;35277;49.890;8.222;2023-08-08T12:56:13;25.40;66.90
2995;DHT22;35277;49.890;8.222;2023-08-08T12:58:41;25.40;66.90
2995;DHT22;35277;49.890;8.222;2023-08-08T13:01:09;25.40;67.00
2995;DHT22;35277;49.890;8.222;2023-08-08T13:03:37;25.40;67.00
2995;DHT22;35277;49.890;8.222;2023-08-08T13:06:11;25.40;67.80
2995;DHT22;35277;49.890;8.222;2023-08-08T13:08:39;25.40;67.00
2995;DHT22;35277;49.890;8.222;2023-08-08T13:11:07;25.40;67.10
2995;DHT22;35277;49.890;8.222;2023-08-08T13:13:37;25.40;67.10
2995;DHT22;35277;49.890;8.222;2023-08-08T13:16:04;25.40;67.20
2995;DHT22;35277;49.890;8.222;2023-08-08T13:18:32;25.40;67.20
2995;DHT22;35277;49.890;8.222;2023-08-08T13:21:00;25.40;67.30
2995;DHT22;35277;49.890;8.222;2023-08-08T13:23:28;25.40;67.20
2995;DHT22;35277;49.890;8.222;2023-08-08T13:25:56;25.40;67.20
2995;DHT22;35277;49.890;8.222;2023-08-08T13:28:24;25.40;67.20
2995;DHT22;35277;49.890;8.222;2023-08-08T13:30:53;25.40;67.20
2995;DHT22;35277;49.890;8.222;2023-08-08T13:33:21;25.40;67.20
2995;DHT22;35277;49.890;8.222;2023-08-08T13:35:48;25.40;67.20
2995;DHT22;35277;49.890;8.222;2023-08-08T13:38:16;25.40;67.20
2995;DHT22;35277;49.890;8.222;2023-08-08T13:40:44;25.40;67.20
2995;DHT22;35277;49.890;8.222;2023-08-08T13:43:12;25.30;67.10
2995;DHT22;35277;49.890;8.222;2023-08-08T13:45:40;25.30;67.90
2995;DHT22;35277;49.890;8.222;2023-08-08T13:48:09;25.30;67.10
2995;DHT22;35277;49.890;8.222;2023-08-08T13:50:38;25.40;67.20
2995;DHT22;35277;49.890;8.222;2023-08-08T13:53:06;25.30;67.10
2995;DHT22;35277;49.890;8.222;2023-08-08T13:55:33;25.30;67.10
2995;DHT22;35277;49.890;8.222;2023-08-08T13:58:06;25.30;67.00
2995;DHT22;35277;49.890;8.222;2023-08-08T14:00:34;25.30;67.00
2995;DHT22;35277;49.890;8.222;2023-08-08T14:03:02;25.30;67.00
2995;DHT22;35277;49.890;8.222;2023-08-08T14:05:32;25.30;67.00
2995;DHT22;35277;49.890;8.222;2023-08-08T14:08:00;25.30;67.00
2995;DHT22;35277;49.890;8.222;2023-08-08T14:10:27;25.30;67.00
2995;DHT22;35277;49.890;8.222;2023-08-08T14:12:56;25.30;67.00
2995;DHT22;35277;49.890;8.222;2023-08-08T14:15:24;25.30;67.00
2995;DHT22;35277;49.890;8.222;2023-08-08T14:18:05;25.30;67.00
2995;DHT22;35277;49.890;8.222;2023-08-08T14:20:35;25.30;67.00
2995;DHT22;35277;49.890;8.222;2023-08-08T14:23:03;25.30;67.00
2995;DHT22;35277;49.890;8.222;2023-08-08T14:25:31;25.30;67.00
2995;DHT22;35277;49.890;8.222;2023-08-08T14:27:59;25.30;67.00
2995;DHT22;35277;49.890;8.222;2023-08-08T14:30:27;25.30;67.00
2995;DHT22;35277;49.890;8.222;2023-08-08T14:32:55;25.20;66.90
2995;DHT22;35277;49.890;8.222;2023-08-08T14:35:23;25.30;67.00
2995;DHT22;35277;49.890;8.222;2023-08-08T14:37:52;25.30;67.00
2995;DHT22;35277;49.890;8.222;2023-08-08T14:40:20;25.20;66.90
2995;DHT22;35277;49.890;8.222;2023-08-08T14:42:48;25.20;66.90
2995;DHT22;35277;49.890;8.222;2023-08-08T14:45:17;25.20;66.90
2995;DHT22;35277;49.890;8.222;2023-08-08T14:47:44;25.20;66.90
2995;DHT22;35277;49.890;8.222;2023-08-08T14:50:12;25.20;66.90
2995;DHT22;35277;49.890;8.222;2023-08-08T14:52:40;25.20;67.00
2995;DHT22;35277;49.890;8.222;2023-08-08T14:55:09;25.20;67.00
2995;DHT22;35277;49.890;8.222;2023-08-08T14:57:37;25.20;67.00
2995;DHT22;35277;49.890;8.222;2023-08-08T15:00:06;25.20;67.00
2995;DHT22;35277;49.890;8.222;2023-08-08T15:02:35;25.20;67.00
2995;DHT22;35277;49.890;8.222;2023-08-08T15:05:04;25.20;67.00
2995;DHT22;35277;49.890;8.222;2023-08-08T15:07:32;25.20;67.10
2995;DHT22;35277;49.890;8.222;2023-08-08T15:10:00;25.20;67.20
2995;DHT22;35277;49.890;8.222;2023-08-08T15:12:29;25.20;67.20
2995;DHT22;35277;49.890;8.222;2023-08-08T15:14:57;25.20;67.20
2995;DHT22;35277;49.890;8.222;2023-08-08T15:17:25;25.20;67.20
2995;DHT22;35277;49.890;8.222;2023-08-08T15:19:54;25.20;67.20
2995;DHT22;35277;49.890;8.222;2023-08-08T15:22:21;25.20;67.20
2995;DHT22;35277;49.890;8.222;2023-08-08T15:24:49;25.20;67.30
2995;DHT22;35277;49.890;8.222;2023-08-08T15:27:17;25.30;67.30
2995;DHT22;35277;49.890;8.222;2023-08-08T15:29:46;25.30;67.40
2995;DHT22;35277;49.890;8.222;2023-08-08T15:32:14;25.30;67.40
2995;DHT22;35277;49.890;8.222;2023-08-08T15:34:42;25.30;67.40
2995;DHT22;35277;49.890;8.222;2023-08-08T15:37:10;25.30;67.40
2995;DHT22;35277;49.890;8.222;2023-08-08T15:39:40;25.30;67.40
2995;DHT22;35277;49.890;8.222;2023-08-08T15:42:07;25.30;67.50
2995;DHT22;35277;49.890;8.222;2023-08-08T15:44:35;25.30;67.50
2995;DHT22;35277;49.890;8.222;2023-08-08T15:47:05;25.30;67.50
2995;DHT22;35277;49.890;8.222;2023-08-08T15:49:35;25.30;67.60
2995;DHT22;35277;49.890;8.222;2023-08-08T15:52:04;25.30;67.60
2995;DHT22;35277;49.890;8.222;2023-08-08T15:54:31;25.30;67.50